This is the latest recevied weather packets stored in our database for station/object KG5CK-1. If no packets are shown the sender has not sent any weather packets the latest 10 day(s).
| Time | Temp. | Humidity | Pressure | Rain* | Wind** | Luminosity | Snow |
|---|---|---|---|---|---|---|---|
| 1778249523 | 18.89° C | 79% | 1010.6 hPa | 0 mm | 0.89 m/s, 106° | - | - |
| 1778249462 | 18.89° C | 79% | 1010.6 hPa | 0 mm | 0.89 m/s, 106° | - | - |
| 1778249403 | 18.33° C | 80% | 1010.5 hPa | 0 mm | 0.89 m/s, 101° | - | - |
| 1778249343 | 18.33° C | 80% | 1010.5 hPa | 0 mm | 0.89 m/s, 101° | - | - |
| 1778249283 | 18.33° C | 80% | 1010.5 hPa | 0 mm | 0.89 m/s, 101° | - | - |
| 1778249223 | 18.33° C | 80% | 1010.5 hPa | 0 mm | 0.89 m/s, 101° | - | - |
| 1778249162 | 18.33° C | 80% | 1010.5 hPa | 0 mm | 0.89 m/s, 101° | - | - |
| 1778249103 | 18.33° C | 81% | 1010.6 hPa | 0 mm | 0.89 m/s, 113° | - | - |
| 1778249043 | 18.33° C | 81% | 1010.6 hPa | 0 mm | 0.89 m/s, 113° | - | - |
| 1778248982 | 18.33° C | 81% | 1010.6 hPa | 0 mm | 0.89 m/s, 113° | - | - |
| 1778248923 | 18.33° C | 81% | 1010.6 hPa | 0 mm | 0.89 m/s, 113° | - | - |
| 1778248863 | 18.33° C | 81% | 1010.4 hPa | 0 mm | 0.45 m/s, 90° | - | - |
| 1778248803 | 18.33° C | 81% | 1010.4 hPa | 0 mm | 0.45 m/s, 90° | - | - |
| 1778248743 | 18.33° C | 81% | 1010.4 hPa | 0 mm | 0.45 m/s, 90° | - | - |
| 1778248683 | 18.33° C | 81% | 1010.4 hPa | 0 mm | 0.45 m/s, 90° | - | - |
| 1778248623 | 18.33° C | 81% | 1010.4 hPa | 0 mm | 0.45 m/s, 90° | - | - |
| 1778248562 | 18.33° C | 81% | 1010.4 hPa | 0 mm | 0.45 m/s, 90° | - | - |
| 1778248503 | 18.33° C | 81% | 1010.2 hPa | 0 mm | 0.89 m/s, 156° | - | - |
| 1778248442 | 18.33° C | 81% | 1010.2 hPa | 0 mm | 0.89 m/s, 156° | - | - |
| 1778248383 | 18.33° C | 81% | 1010.2 hPa | 0 mm | 0.89 m/s, 156° | - | - |
| 1778248262 | 18.33° C | 81% | 1010.2 hPa | 0 mm | 0.89 m/s, 156° | - | - |
| 1778248203 | 17.78° C | 85% | 1010.5 hPa | 0 mm | 0.89 m/s, 121° | - | - |
| 1778248143 | 17.78° C | 85% | 1010.5 hPa | 0 mm | 0.89 m/s, 121° | - | - |
| 1778248083 | 17.78° C | 85% | 1010.5 hPa | 0 mm | 0.89 m/s, 121° | - | - |
| 1778248023 | 17.78° C | 85% | 1010.5 hPa | 0 mm | 0.89 m/s, 121° | - | - |
* Rain latest hour (hover to see other rain measurements)
** Current wind speed in m/s (hover to see current wind gust speed)